createdAt,value
2017-09-26T00:00:24.753Z,0
2017-09-26T00:01:24.100Z,0
2017-09-26T00:02:25.043Z,0
2017-09-26T00:03:24.069Z,0
2017-09-26T00:04:24.747Z,0
2017-09-26T00:05:24.683Z,0
2017-09-26T00:06:25.001Z,0
2017-09-26T00:07:24.342Z,0
2017-09-26T00:08:24.648Z,0
2017-09-26T00:09:24.958Z,0
2017-09-26T00:10:24.937Z,0
2017-09-26T00:11:24.287Z,0
2017-09-26T00:12:23.954Z,0
2017-09-26T00:13:24.581Z,0
2017-09-26T00:14:24.247Z,0
2017-09-26T00:15:24.235Z,0
2017-09-26T00:16:24.866Z,0
2017-09-26T00:17:24.850Z,0
2017-09-26T00:18:24.838Z,0
2017-09-26T00:19:24.506Z,0
2017-09-26T00:20:24.171Z,0
2017-09-26T00:21:24.492Z,0
2017-09-26T00:22:24.148Z,0
2017-09-26T00:23:24.467Z,0
2017-09-26T00:24:24.766Z,0
2017-09-26T00:25:24.752Z,0
2017-09-26T00:26:24.424Z,0
2017-09-26T00:27:24.738Z,0
2017-09-26T00:28:24.072Z,0
2017-09-26T00:29:24.699Z,0
2017-09-26T00:30:24.360Z,0
2017-09-26T00:31:24.677Z,0
2017-09-26T00:32:24.667Z,0
2017-09-26T00:33:24.005Z,0
2017-09-26T00:34:24.631Z,0
2017-09-26T00:35:23.975Z,0
2017-09-26T00:36:24.278Z,0
2017-09-26T00:37:23.948Z,0
2017-09-26T00:38:24.257Z,0
2017-09-26T00:39:24.243Z,0
2017-09-26T00:40:24.226Z,0
2017-09-26T00:41:23.894Z,0
2017-09-26T00:42:23.875Z,0
2017-09-26T00:43:24.553Z,0
2017-09-26T00:44:23.851Z,0
2017-09-26T00:45:24.210Z,0
2017-09-26T00:46:23.816Z,0
2017-09-26T00:47:24.127Z,0
2017-09-26T00:48:23.469Z,0
2017-09-26T00:49:23.782Z,0
2017-09-26T00:50:23.767Z,0
2017-09-26T00:51:23.752Z,0
2017-09-26T00:52:23.740Z,0
2017-09-26T00:53:24.366Z,0
2017-09-26T00:54:23.712Z,0
2017-09-26T00:55:24.019Z,0
2017-09-26T00:56:23.682Z,0
2017-09-26T00:57:23.993Z,0
2017-09-26T00:58:24.303Z,0
2017-09-26T00:59:23.964Z,0
2017-09-26T01:00:23.952Z,0
2017-09-26T01:01:23.969Z,0
2017-09-26T01:02:23.603Z,0
2017-09-26T01:03:23.914Z,0
2017-09-26T01:04:24.215Z,0
2017-09-26T01:05:23.882Z,0
2017-09-26T01:06:23.868Z,0
2017-09-26T01:07:23.861Z,0
2017-09-26T01:08:23.200Z,0
2017-09-26T01:09:23.508Z,0
2017-09-26T01:10:23.493Z,0
2017-09-26T01:11:23.163Z,0
2017-09-26T01:12:23.779Z,0
2017-09-26T01:13:23.460Z,0
2017-09-26T01:14:23.759Z,0
2017-09-26T01:15:23.103Z,0
2017-09-26T01:16:24.055Z,0
2017-09-26T01:17:24.042Z,0
2017-09-26T01:18:23.703Z,0
2017-09-26T01:19:23.690Z,0
2017-09-26T01:20:23.680Z,0
2017-09-26T01:21:23.990Z,0
2017-09-26T01:22:23.652Z,0
2017-09-26T01:23:23.323Z,0
2017-09-26T01:24:23.619Z,0
2017-09-26T01:25:23.608Z,0
2017-09-26T01:26:23.592Z,0
2017-09-26T01:27:23.269Z,0
2017-09-26T01:28:23.604Z,0
2017-09-26T01:29:23.563Z,0
2017-09-26T01:30:23.860Z,0
2017-09-26T01:31:23.531Z,0
2017-09-26T01:32:23.843Z,0
2017-09-26T01:33:22.868Z,0
2017-09-26T01:34:23.171Z,0
2017-09-26T01:35:23.471Z,0
2017-09-26T01:36:23.781Z,0
2017-09-26T01:37:23.768Z,0
2017-09-26T01:38:23.433Z,0
2017-09-26T01:39:23.416Z,0
2017-09-26T01:40:23.405Z,0
2017-09-26T01:41:23.713Z,0
2017-09-26T01:42:22.734Z,0
2017-09-26T01:43:22.721Z,0
2017-09-26T01:44:23.030Z,0
2017-09-26T01:45:23.346Z,0
2017-09-26T01:46:23.013Z,0
2017-09-26T01:47:23.635Z,0
2017-09-26T01:48:22.976Z,0
2017-09-26T01:49:23.285Z,0
2017-09-26T01:50:23.278Z,0
2017-09-26T01:51:22.938Z,0
2017-09-26T01:52:23.244Z,0
2017-09-26T01:53:22.590Z,0
2017-09-26T01:54:22.887Z,0
2017-09-26T01:55:23.199Z,0
2017-09-26T01:56:22.868Z,0
2017-09-26T01:57:23.490Z,0
2017-09-26T01:58:23.366Z,0
2017-09-26T01:59:22.840Z,0
2017-09-26T02:00:23.129Z,0
2017-09-26T02:01:22.807Z,0
2017-09-26T02:02:22.788Z,0
2017-09-26T02:03:23.091Z,0
2017-09-26T02:04:23.077Z,0
2017-09-26T02:05:22.745Z,0
2017-09-26T02:06:22.734Z,0
2017-09-26T02:07:23.043Z,0
2017-09-26T02:08:22.703Z,0
2017-09-26T02:09:22.370Z,0
2017-09-26T02:10:22.674Z,0
2017-09-26T02:11:22.658Z,0
2017-09-26T02:12:23.302Z,0
2017-09-26T02:13:22.959Z,0
2017-09-26T02:14:22.622Z,0
2017-09-26T02:15:22.613Z,0
2017-09-26T02:16:22.589Z,0
2017-09-26T02:17:22.584Z,0
2017-09-26T02:18:22.241Z,0
2017-09-26T02:19:22.559Z,0
2017-09-26T02:20:22.858Z,0
2017-09-26T02:21:22.901Z,0
2017-09-26T02:22:22.523Z,0
2017-09-26T02:23:22.173Z,0
2017-09-26T02:24:22.802Z,0
2017-09-26T02:25:22.793Z,0
2017-09-26T02:26:23.102Z,0
2017-09-26T02:27:22.767Z,0
2017-09-26T02:28:22.433Z,0
2017-09-26T02:29:22.744Z,0
2017-09-26T02:30:22.733Z,0
2017-09-26T02:31:22.394Z,0
2017-09-26T02:32:22.699Z,0
2017-09-26T02:33:22.696Z,0
2017-09-26T02:34:22.350Z,0
2017-09-26T02:35:22.343Z,0
2017-09-26T02:36:22.321Z,0
2017-09-26T02:37:22.305Z,0
2017-09-26T02:38:22.939Z,0
2017-09-26T02:39:22.290Z,0
2017-09-26T02:40:22.590Z,0
2017-09-26T02:41:22.251Z,0
2017-09-26T02:42:22.561Z,0
2017-09-26T02:43:21.908Z,0
2017-09-26T02:44:22.533Z,0
2017-09-26T02:45:22.519Z,0
2017-09-26T02:46:22.503Z,0
2017-09-26T02:47:22.171Z,0
2017-09-26T02:48:22.155Z,0
2017-09-26T02:49:22.462Z,0
2017-09-26T02:50:22.129Z,0
2017-09-26T02:51:22.446Z,0
2017-09-26T02:52:21.779Z,0
2017-09-26T02:53:22.094Z,0
2017-09-26T02:54:21.749Z,0
2017-09-26T02:55:22.074Z,0
2017-09-26T02:56:22.370Z,0
2017-09-26T02:57:22.041Z,0
2017-09-26T02:58:22.339Z,0
2017-09-26T02:59:22.328Z,0
2017-09-26T03:00:22.311Z,0
2017-09-26T03:01:21.653Z,0
2017-09-26T03:02:22.609Z,0
2017-09-26T03:03:21.626Z,0
2017-09-26T03:04:21.611Z,0
2017-09-26T03:05:21.919Z,0
2017-09-26T03:06:22.230Z,0
2017-09-26T03:07:22.212Z,0
2017-09-26T03:08:21.879Z,0
2017-09-26T03:09:22.209Z,0
2017-09-26T03:10:22.497Z,0
2017-09-26T03:11:21.514Z,0
2017-09-26T03:12:22.484Z,0
2017-09-26T03:13:22.147Z,0
2017-09-26T03:14:22.123Z,0
2017-09-26T03:15:21.463Z,0
2017-09-26T03:16:21.452Z,0
2017-09-26T03:17:22.083Z,0
2017-09-26T03:18:22.063Z,0
2017-09-26T03:19:22.061Z,0
2017-09-26T03:20:22.040Z,0
2017-09-26T03:21:22.026Z,0
2017-09-26T03:22:21.734Z,0
2017-09-26T03:23:21.673Z,0
2017-09-26T03:24:21.985Z,0
2017-09-26T03:25:21.966Z,0
2017-09-26T03:26:21.309Z,0
2017-09-26T03:27:21.294Z,0
2017-09-26T03:28:21.920Z,0
2017-09-26T03:29:21.915Z,0
2017-09-26T03:30:22.235Z,0
2017-09-26T03:31:21.896Z,0
2017-09-26T03:32:21.542Z,0
2017-09-26T03:33:21.862Z,0
2017-09-26T03:34:21.838Z,0
2017-09-26T03:35:22.140Z,0
2017-09-26T03:36:22.138Z,0
2017-09-26T03:37:22.125Z,0
2017-09-26T03:38:21.794Z,0
2017-09-26T03:39:21.449Z,0
2017-09-26T03:40:21.433Z,0
2017-09-26T03:41:21.741Z,0
2017-09-26T03:42:21.411Z,0
2017-09-26T03:43:21.394Z,0
2017-09-26T03:44:21.700Z,0
2017-09-26T03:45:21.699Z,0
2017-09-26T03:46:21.685Z,0
2017-09-26T03:47:21.341Z,0
2017-09-26T03:48:21.967Z,0
2017-09-26T03:49:21.636Z,0
2017-09-26T03:50:21.618Z,0
2017-09-26T03:51:21.289Z,0
2017-09-26T03:52:21.327Z,0
2017-09-26T03:53:21.898Z,0
2017-09-26T03:54:21.569Z,0
2017-09-26T03:55:21.557Z,0
2017-09-26T03:56:21.537Z,0
2017-09-26T03:57:21.527Z,0
2017-09-26T03:58:21.588Z,0
2017-09-26T03:59:21.174Z,0
2017-09-26T04:00:21.480Z,0
2017-09-26T04:01:20.824Z,0
2017-09-26T04:02:20.816Z,0
2017-09-26T04:03:21.115Z,0
2017-09-26T04:04:21.423Z,0
2017-09-26T04:05:21.405Z,0
2017-09-26T04:06:21.400Z,0
2017-09-26T04:07:21.069Z,0
2017-09-26T04:08:21.367Z,0
2017-09-26T04:09:21.682Z,0
2017-09-26T04:10:21.664Z,0
2017-09-26T04:11:21.331Z,0
2017-09-26T04:12:20.984Z,0
2017-09-26T04:13:21.622Z,0
2017-09-26T04:14:20.965Z,0
2017-09-26T04:15:20.948Z,0
2017-09-26T04:16:21.573Z,0
2017-09-26T04:17:21.249Z,0
2017-09-26T04:18:20.909Z,0
2017-09-26T04:19:20.896Z,0
2017-09-26T04:20:20.879Z,0
2017-09-26T04:21:21.190Z,0
2017-09-26T04:22:20.853Z,0
2017-09-26T04:23:21.154Z,0
2017-09-26T04:24:21.144Z,0
2017-09-26T04:25:20.492Z,0
2017-09-26T04:26:20.797Z,0
2017-09-26T04:27:20.790Z,0
2017-09-26T04:28:20.764Z,0
2017-09-26T04:29:20.754Z,0
2017-09-26T04:30:20.739Z,0
2017-09-26T04:31:20.405Z,0
2017-09-26T04:32:21.032Z,0
2017-09-26T04:33:21.068Z,0
2017-09-26T04:34:20.682Z,0
2017-09-26T04:35:20.990Z,0
2017-09-26T04:36:20.660Z,0
2017-09-26T04:37:20.962Z,0
2017-09-26T04:38:21.271Z,0
2017-09-26T04:39:21.258Z,0
2017-09-26T04:40:20.918Z,0
2017-09-26T04:41:20.912Z,0
2017-09-26T04:42:20.574Z,0
2017-09-26T04:43:20.557Z,0
2017-09-26T04:44:20.543Z,0
2017-09-26T04:45:20.854Z,0
2017-09-26T04:46:20.520Z,0
2017-09-26T04:47:20.825Z,0
2017-09-26T04:48:20.497Z,0
2017-09-26T04:49:20.157Z,0
2017-09-26T04:50:21.107Z,0
2017-09-26T04:51:20.448Z,0
2017-09-26T04:52:20.752Z,0
2017-09-26T04:53:21.067Z,0
2017-09-26T04:54:20.098Z,0
2017-09-26T04:55:20.717Z,0
2017-09-26T04:56:20.704Z,0
2017-09-26T04:57:20.688Z,0
2017-09-26T04:58:20.084Z,0
2017-09-26T04:59:20.339Z,0
2017-09-26T05:00:20.651Z,4
2017-09-26T05:01:20.961Z,4
2017-09-26T05:02:20.295Z,0
2017-09-26T05:03:20.277Z,4
2017-09-26T05:04:20.908Z,4
2017-09-26T05:05:20.253Z,4
2017-09-26T05:06:20.245Z,4
2017-09-26T05:07:20.873Z,4
2017-09-26T05:08:20.546Z,8
2017-09-26T05:09:20.836Z,8
2017-09-26T05:10:20.182Z,8
2017-09-26T05:11:19.849Z,12
2017-09-26T05:12:20.476Z,12
2017-09-26T05:13:20.462Z,16
2017-09-26T05:14:20.446Z,16
2017-09-26T05:15:19.794Z,20
2017-09-26T05:16:20.738Z,20
2017-09-26T05:17:20.447Z,20
2017-09-26T05:18:20.714Z,24
2017-09-26T05:19:20.387Z,28
2017-09-26T05:20:20.369Z,32
2017-09-26T05:21:20.028Z,36
2017-09-26T05:22:19.700Z,44
2017-09-26T05:23:20.325Z,44
2017-09-26T05:24:19.982Z,48
2017-09-26T05:25:20.294Z,56
2017-09-26T05:26:19.964Z,60
2017-09-26T05:27:20.268Z,64
2017-09-26T05:28:19.609Z,68
2017-09-26T05:29:20.234Z,72
2017-09-26T05:30:20.228Z,76
2017-09-26T05:31:19.893Z,84
2017-09-26T05:32:19.556Z,92
2017-09-26T05:33:19.859Z,96
2017-09-26T05:34:19.847Z,108
2017-09-26T05:35:20.158Z,116
2017-09-26T05:36:20.139Z,124
2017-09-26T05:37:20.442Z,136
2017-09-26T05:38:19.789Z,148
2017-09-26T05:39:19.454Z,152
2017-09-26T05:40:19.762Z,160
2017-09-26T05:41:19.753Z,168
2017-09-26T05:42:20.374Z,180
2017-09-26T05:43:19.398Z,184
2017-09-26T05:44:20.031Z,192
2017-09-26T05:45:20.041Z,192
2017-09-26T05:46:20.327Z,192
2017-09-26T05:47:19.996Z,204
2017-09-26T05:48:20.293Z,216
2017-09-26T05:49:20.291Z,224
2017-09-26T05:50:20.278Z,232
2017-09-26T05:51:19.289Z,236
2017-09-26T05:52:19.591Z,236
2017-09-26T05:53:19.580Z,256
2017-09-26T05:54:19.886Z,252
2017-09-26T05:55:20.197Z,244
2017-09-26T05:56:19.543Z,256
2017-09-26T05:57:19.525Z,304
2017-09-26T05:58:19.512Z,312
2017-09-26T05:59:19.504Z,316
2017-09-26T06:00:19.805Z,320
2017-09-26T06:01:19.789Z,324
2017-09-26T06:02:19.454Z,336
2017-09-26T06:03:19.760Z,336
2017-09-26T06:04:19.430Z,340
2017-09-26T06:05:19.411Z,336
2017-09-26T06:06:19.721Z,384
2017-09-26T06:07:19.392Z,412
2017-09-26T06:08:19.689Z,424
2017-09-26T06:09:19.682Z,456
2017-09-26T06:10:19.660Z,452
2017-09-26T06:11:19.978Z,488
2017-09-26T06:12:19.967Z,528
2017-09-26T06:13:18.979Z,512
2017-09-26T06:14:19.930Z,556
2017-09-26T06:15:19.285Z,624
2017-09-26T06:16:19.265Z,676
2017-09-26T06:17:19.896Z,728
2017-09-26T06:18:19.871Z,692
2017-09-26T06:19:19.871Z,756
2017-09-26T06:20:19.209Z,776
2017-09-26T06:21:19.841Z,856
2017-09-26T06:22:18.853Z,904
2017-09-26T06:23:19.498Z,976
2017-09-26T06:24:19.154Z,936
2017-09-26T06:25:19.457Z,1044
2017-09-26T06:26:19.762Z,1080
2017-09-26T06:27:19.435Z,1084
2017-09-26T06:28:19.735Z,1076
2017-09-26T06:29:19.407Z,1112
2017-09-26T06:30:19.068Z,1048
2017-09-26T06:31:19.058Z,1224
2017-09-26T06:32:19.053Z,1196
2017-09-26T06:33:19.352Z,1272
2017-09-26T06:34:19.011Z,1228
2017-09-26T06:35:19.002Z,1332
2017-09-26T06:36:18.991Z,1392
2017-09-26T06:37:19.631Z,1464
2017-09-26T06:38:19.006Z,1324
2017-09-26T06:39:19.277Z,1468
2017-09-26T06:40:19.579Z,1416
2017-09-26T06:41:19.248Z,1456
2017-09-26T06:42:19.239Z,1492
2017-09-26T06:43:18.580Z,1556
2017-09-26T06:44:18.883Z,1612
2017-09-26T06:45:18.867Z,1608
2017-09-26T06:46:19.171Z,1644
2017-09-26T06:47:18.841Z,1696
2017-09-26T06:48:18.827Z,1772
2017-09-26T06:49:19.137Z,1852
2017-09-26T06:50:19.445Z,1924
2017-09-26T06:51:19.106Z,2056
2017-09-26T06:52:18.778Z,2132
2017-09-26T06:53:18.435Z,2108
2017-09-26T06:54:19.395Z,2124
2017-09-26T06:55:18.734Z,1952
2017-09-26T06:56:19.042Z,2024
2017-09-26T06:57:18.387Z,2352
2017-09-26T06:58:19.018Z,2384
2017-09-26T06:59:18.356Z,2460
2017-09-26T07:00:18.674Z,2480
2017-09-26T07:01:18.973Z,2472
2017-09-26T07:02:18.958Z,2440
2017-09-26T07:03:18.621Z,2456
2017-09-26T07:04:18.292Z,2492
2017-09-26T07:05:18.295Z,2520
2017-09-26T07:06:18.906Z,2508
2017-09-26T07:07:18.893Z,2472
2017-09-26T07:08:18.242Z,2484
2017-09-26T07:09:18.869Z,2508
2017-09-26T07:10:18.870Z,2476
2017-09-26T07:11:19.159Z,2496
2017-09-26T07:12:18.830Z,2756
2017-09-26T07:13:18.170Z,2856
2017-09-26T07:14:18.802Z,3032
2017-09-26T07:15:19.116Z,3300
2017-09-26T07:16:18.772Z,3556
2017-09-26T07:17:19.087Z,3860
2017-09-26T07:18:18.753Z,4256
2017-09-26T07:19:19.064Z,4232
2017-09-26T07:20:18.409Z,3928
2017-09-26T07:21:18.392Z,3468
2017-09-26T07:22:19.017Z,3588
2017-09-26T07:23:18.691Z,3568
2017-09-26T07:24:18.349Z,3492
2017-09-26T07:25:18.395Z,3452
2017-09-26T07:26:18.322Z,3464
2017-09-26T07:27:18.311Z,3508
2017-09-26T07:28:18.345Z,3496
2017-09-26T07:29:18.927Z,3540
2017-09-26T07:30:18.911Z,3572
2017-09-26T07:31:18.258Z,3564
2017-09-26T07:32:17.936Z,3772
2017-09-26T07:33:18.887Z,3912
2017-09-26T07:34:18.219Z,3936
2017-09-26T07:35:18.528Z,3864
2017-09-26T07:36:18.198Z,3944
2017-09-26T07:37:18.500Z,3960
2017-09-26T07:38:18.497Z,3992
2017-09-26T07:39:18.167Z,4008
2017-09-26T07:40:17.846Z,4100
2017-09-26T07:41:18.463Z,4272
2017-09-26T07:42:18.450Z,4292
2017-09-26T07:43:18.114Z,4412
2017-09-26T07:44:18.097Z,4332
2017-09-26T07:45:18.406Z,4576
2017-09-26T07:46:17.750Z,4536
2017-09-26T07:47:18.064Z,4432
2017-09-26T07:48:18.362Z,4444
2017-09-26T07:49:18.689Z,4484
2017-09-26T07:50:18.021Z,4520
2017-09-26T07:51:18.325Z,4396
2017-09-26T07:52:18.313Z,4712
2017-09-26T07:53:18.309Z,4860
2017-09-26T07:54:17.970Z,4960
2017-09-26T07:55:17.956Z,5108
2017-09-26T07:56:18.587Z,5244
2017-09-26T07:57:17.935Z,5272
2017-09-26T07:58:18.243Z,5332
2017-09-26T07:59:18.113Z,5532
2017-09-26T08:00:17.913Z,5744
2017-09-26T08:01:17.901Z,5748
2017-09-26T08:02:17.916Z,6232
2017-09-26T08:03:18.188Z,6212
2017-09-26T08:04:18.174Z,6180
2017-09-26T08:05:17.839Z,6296
2017-09-26T08:06:17.857Z,6480
2017-09-26T08:07:18.460Z,6484
2017-09-26T08:08:18.127Z,6600
2017-09-26T08:09:17.799Z,6788
2017-09-26T08:10:18.110Z,6836
2017-09-26T08:11:17.777Z,6880
2017-09-26T08:12:17.752Z,6856
2017-09-26T08:13:17.425Z,7132
2017-09-26T08:14:17.725Z,7468
2017-09-26T08:15:17.392Z,7680
2017-09-26T08:16:18.029Z,8048
2017-09-26T08:17:18.337Z,8404
2017-09-26T08:18:17.359Z,8812
2017-09-26T08:19:17.991Z,9476
2017-09-26T08:20:17.663Z,9872
2017-09-26T08:21:18.028Z,9532
2017-09-26T08:22:17.636Z,9204
2017-09-26T08:23:17.629Z,8916
2017-09-26T08:24:17.934Z,9272
2017-09-26T08:25:17.934Z,9876
2017-09-26T08:26:17.915Z,10448
2017-09-26T08:27:18.218Z,10268
2017-09-26T08:28:18.220Z,10124
2017-09-26T08:29:17.881Z,10100
2017-09-26T08:30:17.878Z,10172
2017-09-26T08:31:17.537Z,10632
2017-09-26T08:32:18.171Z,10632
2017-09-26T08:33:17.829Z,10132
2017-09-26T08:34:17.506Z,9936
2017-09-26T08:35:17.491Z,9724
2017-09-26T08:36:17.799Z,9684
2017-09-26T08:37:17.791Z,9764
2017-09-26T08:38:17.788Z,9436
2017-09-26T08:39:17.766Z,9124
2017-09-26T08:40:17.759Z,8544
2017-09-26T08:41:17.750Z,7816
2017-09-26T08:42:17.421Z,7424
2017-09-26T08:43:18.044Z,7692
2017-09-26T08:44:17.394Z,6840
2017-09-26T08:45:17.386Z,6288
2017-09-26T08:46:17.713Z,5980
2017-09-26T08:47:17.044Z,6004
2017-09-26T08:48:17.675Z,5880
2017-09-26T08:49:17.663Z,5760
2017-09-26T08:50:17.338Z,5780
2017-09-26T08:51:17.325Z,5524
2017-09-26T08:52:17.310Z,5500
2017-09-26T08:53:17.629Z,5384
2017-09-26T08:54:17.298Z,5404
2017-09-26T08:55:17.289Z,5468
2017-09-26T08:56:17.596Z,5504
2017-09-26T08:57:17.899Z,5516
2017-09-26T08:58:17.247Z,5500
2017-09-26T08:59:17.879Z,5448
2017-09-26T09:00:17.233Z,5464
2017-09-26T09:01:17.532Z,5428
2017-09-26T09:02:17.203Z,5556
2017-09-26T09:03:17.834Z,5592
2017-09-26T09:04:17.183Z,5608
2017-09-26T09:05:17.492Z,5556
2017-09-26T09:06:17.488Z,5452
2017-09-26T09:07:17.469Z,5332
2017-09-26T09:08:17.130Z,5192
2017-09-26T09:09:17.453Z,5196
2017-09-26T09:10:17.444Z,5288
2017-09-26T09:11:17.429Z,5320
2017-09-26T09:12:17.416Z,5268
2017-09-26T09:13:17.724Z,5436
2017-09-26T09:14:17.404Z,5708
2017-09-26T09:15:17.725Z,5812
2017-09-26T09:16:17.367Z,5832
2017-09-26T09:17:17.040Z,5916
2017-09-26T09:18:17.353Z,6040
2017-09-26T09:19:17.016Z,6156
2017-09-26T09:20:17.328Z,6144
2017-09-26T09:21:16.992Z,6212
2017-09-26T09:22:16.983Z,6348
2017-09-26T09:23:17.613Z,6280
2017-09-26T09:24:16.964Z,6180
2017-09-26T09:25:16.953Z,6148
2017-09-26T09:26:16.940Z,6268
2017-09-26T09:27:16.609Z,6480
2017-09-26T09:28:17.269Z,6680
2017-09-26T09:29:16.906Z,6972
2017-09-26T09:30:17.218Z,7460
2017-09-26T09:31:16.562Z,7688
2017-09-26T09:32:17.201Z,7808
2017-09-26T09:33:17.181Z,7824
2017-09-26T09:34:17.191Z,7700
2017-09-26T09:35:16.839Z,7720
2017-09-26T09:36:16.506Z,7816
2017-09-26T09:37:17.202Z,8772
2017-09-26T09:38:17.123Z,7340
2017-09-26T09:39:17.131Z,6836
2017-09-26T09:40:16.784Z,6904
2017-09-26T09:41:17.102Z,6988
2017-09-26T09:42:17.089Z,7116
2017-09-26T09:43:17.419Z,6980
2017-09-26T09:44:17.065Z,7064
2017-09-26T09:45:16.758Z,7036
2017-09-26T09:46:17.034Z,7024
2017-09-26T09:47:17.132Z,7092
2017-09-26T09:48:16.372Z,6980
2017-09-26T09:49:16.360Z,7064
2017-09-26T09:50:16.989Z,7136
2017-09-26T09:51:17.309Z,6992
2017-09-26T09:52:16.651Z,7056
2017-09-26T09:53:16.651Z,7148
2017-09-26T09:54:16.632Z,7152
2017-09-26T09:55:16.943Z,7252
2017-09-26T09:56:16.614Z,7388
2017-09-26T09:57:16.918Z,8256
2017-09-26T09:58:16.593Z,9840
2017-09-26T09:59:17.100Z,9812
2017-09-26T10:00:16.895Z,7644
2017-09-26T10:01:16.551Z,8228
2017-09-26T10:02:16.542Z,7152
2017-09-26T10:03:16.534Z,7164
2017-09-26T10:04:16.845Z,7516
2017-09-26T10:05:16.512Z,7916
2017-09-26T10:06:16.501Z,7640
2017-09-26T10:07:16.500Z,7816
2017-09-26T10:08:16.802Z,8004
2017-09-26T10:09:16.788Z,7836
2017-09-26T10:10:16.774Z,8228
2017-09-26T10:11:16.451Z,7652
2017-09-26T10:12:16.447Z,7708
2017-09-26T10:13:16.423Z,7832
2017-09-26T10:14:17.058Z,7828
2017-09-26T10:15:16.084Z,7872
2017-09-26T10:16:16.715Z,7904
2017-09-26T10:17:16.705Z,7924
2017-09-26T10:18:16.696Z,8020
2017-09-26T10:19:16.364Z,8232
2017-09-26T10:20:16.681Z,8460
2017-09-26T10:21:16.664Z,8612
2017-09-26T10:22:16.974Z,8664
2017-09-26T10:23:16.329Z,9528
2017-09-26T10:24:16.315Z,8956
2017-09-26T10:25:16.621Z,8448
2017-09-26T10:26:16.929Z,8436
2017-09-26T10:27:15.962Z,8532
2017-09-26T10:28:16.268Z,8628
2017-09-26T10:29:16.255Z,8760
2017-09-26T10:30:16.571Z,8920
2017-09-26T10:31:16.890Z,9004
2017-09-26T10:32:16.552Z,9284
2017-09-26T10:33:15.896Z,9672
2017-09-26T10:34:16.529Z,9684
2017-09-26T10:35:16.525Z,9724
2017-09-26T10:36:16.186Z,9652
2017-09-26T10:37:16.525Z,10120
2017-09-26T10:38:16.807Z,12900
2017-09-26T10:39:16.153Z,14744
2017-09-26T10:40:15.825Z,13056
2017-09-26T10:41:16.140Z,11248
2017-09-26T10:42:16.140Z,11824
2017-09-26T10:43:16.441Z,12252
2017-09-26T10:44:15.787Z,10620
2017-09-26T10:45:16.423Z,10164
2017-09-26T10:46:15.766Z,10572
2017-09-26T10:47:16.075Z,9916
2017-09-26T10:48:15.747Z,10504
2017-09-26T10:49:15.737Z,10880
2017-09-26T10:50:16.056Z,10416
2017-09-26T10:51:16.678Z,9984
2017-09-26T10:52:16.358Z,10204
2017-09-26T10:53:15.704Z,10236
2017-09-26T10:54:16.341Z,10000
2017-09-26T10:55:16.327Z,9792
2017-09-26T10:56:16.319Z,9596
2017-09-26T10:57:16.309Z,9472
2017-09-26T10:58:16.292Z,10112
2017-09-26T10:59:16.290Z,13864
2017-09-26T11:00:16.285Z,14052
2017-09-26T11:01:15.957Z,12772
2017-09-26T11:02:15.937Z,10884
2017-09-26T11:03:15.934Z,11364
2017-09-26T11:04:15.605Z,10092
2017-09-26T11:05:15.912Z,10292
2017-09-26T11:06:16.229Z,10388
2017-09-26T11:07:16.546Z,11620
2017-09-26T11:08:16.263Z,15016
2017-09-26T11:09:15.883Z,11276
2017-09-26T11:10:16.193Z,10432
2017-09-26T11:11:15.862Z,10712
2017-09-26T11:12:15.853Z,10936
2017-09-26T11:13:16.183Z,10924
2017-09-26T11:14:16.167Z,11880
2017-09-26T11:15:16.195Z,12216
2017-09-26T11:16:16.467Z,14096
2017-09-26T11:17:15.805Z,15656
2017-09-26T11:18:16.123Z,23680
2017-09-26T11:19:16.115Z,31136
2017-09-26T11:20:15.778Z,33600
2017-09-26T11:21:15.780Z,20896
2017-09-26T11:22:15.449Z,11620
2017-09-26T11:23:15.766Z,14096
2017-09-26T11:24:16.079Z,21696
2017-09-26T11:25:16.072Z,23744
2017-09-26T11:26:15.736Z,24224
2017-09-26T11:27:16.376Z,39712
2017-09-26T11:28:16.364Z,28160
2017-09-26T11:29:15.718Z,20288
2017-09-26T11:30:16.360Z,15164
2017-09-26T11:31:16.021Z,16032
2017-09-26T11:32:16.010Z,17536
2017-09-26T11:33:15.362Z,18624
2017-09-26T11:34:15.684Z,18464
2017-09-26T11:35:15.668Z,18496
2017-09-26T11:36:15.984Z,17696
2017-09-26T11:37:15.987Z,16140
2017-09-26T11:38:15.334Z,20960
2017-09-26T11:39:15.645Z,19424
2017-09-26T11:40:15.644Z,19232
2017-09-26T11:41:15.636Z,25568
2017-09-26T11:42:15.636Z,25728
2017-09-26T11:43:15.952Z,31712
2017-09-26T11:44:15.937Z,26592
2017-09-26T11:45:15.613Z,39680
2017-09-26T11:46:15.614Z,53760
2017-09-26T11:47:15.608Z,57440
2017-09-26T11:48:15.920Z,45888
2017-09-26T11:49:16.237Z,60576
2017-09-26T11:50:15.592Z,18176
2017-09-26T11:51:15.904Z,23968
2017-09-26T11:52:15.896Z,37568
2017-09-26T11:53:15.902Z,22688
2017-09-26T11:54:15.273Z,20800
2017-09-26T11:55:15.569Z,16820
2017-09-26T11:56:15.893Z,22080
2017-09-26T11:57:15.890Z,43296
2017-09-26T11:58:15.881Z,43680
2017-09-26T11:59:15.766Z,48256
2017-09-26T12:00:15.889Z,55200
2017-09-26T12:01:15.878Z,49376
2017-09-26T12:02:15.872Z,57440
2017-09-26T12:03:16.189Z,65888
2017-09-26T12:04:15.872Z,63392
2017-09-26T12:05:15.556Z,66176
2017-09-26T12:06:16.198Z,63968
2017-09-26T12:07:16.187Z,59904
2017-09-26T12:08:15.545Z,56224
2017-09-26T12:09:15.866Z,58368
2017-09-26T12:10:15.957Z,61312
2017-09-26T12:11:15.545Z,70528
2017-09-26T12:12:15.866Z,73344
2017-09-26T12:13:15.553Z,79872
2017-09-26T12:14:15.863Z,77152
2017-09-26T12:15:16.187Z,72192
2017-09-26T12:16:15.864Z,51360
2017-09-26T12:17:15.547Z,22336
2017-09-26T12:18:15.546Z,17792
2017-09-26T12:19:15.880Z,16584
2017-09-26T12:20:15.868Z,18272
2017-09-26T12:21:15.879Z,22144
2017-09-26T12:22:15.549Z,17824
2017-09-26T12:23:16.194Z,17920
2017-09-26T12:24:15.882Z,15548
2017-09-26T12:25:15.878Z,14668
2017-09-26T12:26:15.559Z,19392
2017-09-26T12:27:15.562Z,44608
2017-09-26T12:28:15.239Z,49440
2017-09-26T12:29:15.877Z,55008
2017-09-26T12:30:15.871Z,58592
2017-09-26T12:31:15.872Z,58688
2017-09-26T12:32:15.231Z,59520
2017-09-26T12:33:16.196Z,60032
2017-09-26T12:34:16.195Z,58656
2017-09-26T12:35:16.195Z,57152
2017-09-26T12:36:16.186Z,57536
2017-09-26T12:37:15.550Z,57344
2017-09-26T12:38:15.859Z,61824
2017-09-26T12:39:15.543Z,62112
2017-09-26T12:40:15.880Z,62592
2017-09-26T12:41:16.201Z,64288
2017-09-26T12:42:15.863Z,62752
2017-09-26T12:43:16.195Z,64736
2017-09-26T12:44:15.226Z,56960
2017-09-26T12:45:15.873Z,46880
2017-09-26T12:46:16.200Z,36480
2017-09-26T12:47:15.248Z,38080
2017-09-26T12:48:15.876Z,49728
2017-09-26T12:49:15.559Z,49760
2017-09-26T12:50:15.902Z,64768
2017-09-26T12:51:15.891Z,57312
2017-09-26T12:52:16.215Z,46848
2017-09-26T12:53:15.883Z,48320
2017-09-26T12:54:15.890Z,32576
2017-09-26T12:55:15.899Z,42496
2017-09-26T12:56:15.581Z,21824
2017-09-26T12:57:15.896Z,17568
2017-09-26T12:58:15.574Z,18880
2017-09-26T12:59:15.898Z,25120
2017-09-26T13:00:15.582Z,34720
2017-09-26T13:01:15.908Z,30528
2017-09-26T13:02:15.902Z,32800
2017-09-26T13:03:15.917Z,38496
2017-09-26T13:04:16.231Z,38624
2017-09-26T13:05:15.936Z,32160
2017-09-26T13:06:15.282Z,40736
2017-09-26T13:07:15.905Z,45216
2017-09-26T13:08:15.268Z,62400
2017-09-26T13:09:15.906Z,56512
2017-09-26T13:10:15.592Z,50816
2017-09-26T13:11:15.916Z,47808
2017-09-26T13:12:15.305Z,48160
2017-09-26T13:13:15.273Z,59904
2017-09-26T13:14:15.603Z,37920
2017-09-26T13:15:15.924Z,32256
2017-09-26T13:16:15.924Z,37056
2017-09-26T13:17:15.290Z,41344
2017-09-26T13:18:16.237Z,40480
2017-09-26T13:19:15.923Z,45888
2017-09-26T13:20:15.598Z,56640
2017-09-26T13:21:15.931Z,34144
2017-09-26T13:22:15.923Z,28096
2017-09-26T13:23:15.601Z,23904
2017-09-26T13:24:15.279Z,21568
2017-09-26T13:25:16.247Z,24800
2017-09-26T13:26:15.282Z,23136
2017-09-26T13:27:15.607Z,24672
2017-09-26T13:28:15.612Z,24832
2017-09-26T13:29:15.616Z,33216
2017-09-26T13:30:15.607Z,30784
2017-09-26T13:31:15.617Z,28224
2017-09-26T13:32:15.610Z,12616
2017-09-26T13:33:15.937Z,10656
2017-09-26T13:34:16.260Z,10344
2017-09-26T13:35:15.812Z,11368
2017-09-26T13:36:16.257Z,11560
2017-09-26T13:37:15.611Z,12204
2017-09-26T13:38:15.613Z,13688
2017-09-26T13:39:15.937Z,14016
2017-09-26T13:40:15.932Z,12992
2017-09-26T13:41:15.928Z,11420
2017-09-26T13:42:16.253Z,9848
2017-09-26T13:43:15.603Z,9288
2017-09-26T13:44:15.608Z,9480
2017-09-26T13:45:15.926Z,9712
2017-09-26T13:46:15.919Z,10428